createdAt,value
2018-01-01T00:01:23.779Z,16.68
2018-01-01T00:03:52.131Z,17.00
2018-01-01T00:06:20.511Z,16.67
2018-01-01T00:08:48.870Z,16.66
2018-01-01T00:11:17.267Z,16.29
2018-01-01T00:13:45.638Z,16.67
2018-01-01T00:16:14.037Z,16.92
2018-01-01T00:18:44.035Z,17.02
2018-01-01T00:21:12.395Z,17.01
2018-01-01T00:23:40.738Z,16.95
2018-01-01T00:26:09.157Z,16.68
2018-01-01T00:28:37.574Z,16.94
2018-01-01T00:31:06.054Z,17.07
2018-01-01T00:33:34.403Z,16.99
2018-01-01T00:36:02.875Z,17.37
2018-01-01T00:38:31.291Z,17.22
2018-01-01T00:40:59.638Z,16.98
2018-01-01T00:43:28.027Z,16.93
2018-01-01T00:45:56.411Z,16.40
2018-01-01T00:48:25.040Z,16.87
2018-01-01T00:50:53.395Z,16.91
2018-01-01T00:53:21.751Z,17.00
2018-01-01T00:55:50.134Z,16.92
2018-01-01T00:58:18.480Z,16.62
2018-01-01T01:00:46.829Z,16.74
2018-01-01T01:03:15.267Z,16.73
2018-01-01T01:05:43.602Z,16.71
2018-01-01T01:08:12.359Z,16.64
2018-01-01T01:10:40.716Z,16.64
2018-01-01T01:13:09.090Z,16.47
2018-01-01T01:15:37.455Z,16.57
2018-01-01T01:18:05.815Z,16.30
2018-01-01T01:20:34.175Z,16.23
2018-01-01T01:23:02.909Z,16.49
2018-01-01T01:25:31.283Z,16.61
2018-01-01T01:27:59.645Z,16.40
2018-01-01T01:30:27.991Z,16.62
2018-01-01T01:32:56.450Z,16.54
2018-01-01T01:35:24.795Z,16.35
2018-01-01T01:37:53.191Z,16.81
2018-01-01T01:40:21.577Z,16.72
2018-01-01T01:42:49.943Z,16.50
2018-01-01T01:45:18.300Z,16.42
2018-01-01T01:47:46.694Z,16.62
2018-01-01T01:50:15.175Z,16.32
2018-01-01T01:52:43.528Z,16.58
2018-01-01T01:55:12.859Z,16.30
2018-01-01T01:57:41.246Z,16.74
2018-01-01T02:00:10.340Z,16.90
2018-01-01T02:02:38.703Z,16.85
2018-01-01T02:05:07.071Z,16.63
2018-01-01T02:07:35.413Z,16.50
2018-01-01T02:10:04.171Z,16.50
2018-01-01T02:12:32.539Z,16.61
2018-01-01T02:15:00.919Z,16.51
2018-01-01T02:17:29.296Z,16.38
2018-01-01T02:19:57.635Z,16.56
2018-01-01T02:22:26.062Z,16.39
2018-01-01T02:24:54.407Z,16.53
2018-01-01T02:27:22.812Z,16.51
2018-01-01T02:29:51.198Z,16.63
2018-01-01T02:32:33.317Z,16.51
2018-01-01T02:35:01.806Z,16.37
2018-01-01T02:37:30.284Z,16.50
2018-01-01T02:39:58.660Z,16.69
2018-01-01T02:42:27.056Z,16.70
2018-01-01T02:44:55.825Z,16.75
2018-01-01T02:47:24.180Z,16.86
2018-01-01T02:49:52.551Z,16.71
2018-01-01T02:52:20.924Z,16.92
2018-01-01T02:54:49.291Z,17.05
2018-01-01T02:57:17.656Z,16.98
2018-01-01T02:59:46.668Z,16.93
2018-01-01T03:02:15.031Z,16.92
2018-01-01T03:04:43.459Z,16.72
2018-01-01T03:07:11.821Z,16.93
2018-01-01T03:09:40.197Z,16.86
2018-01-01T03:12:08.560Z,16.54
2018-01-01T03:14:36.925Z,16.63
2018-01-01T03:17:05.360Z,16.31
2018-01-01T03:19:33.768Z,16.60
2018-01-01T03:22:02.565Z,16.71
2018-01-01T03:24:30.960Z,16.66
2018-01-01T03:26:59.407Z,16.59
2018-01-01T03:29:28.288Z,16.76
2018-01-01T03:31:56.686Z,16.60
2018-01-01T03:34:25.469Z,16.70
2018-01-01T03:36:54.244Z,16.43
2018-01-01T03:39:23.105Z,16.48
2018-01-01T03:41:51.501Z,16.58
2018-01-01T03:44:19.902Z,16.63
2018-01-01T03:46:48.676Z,16.46
2018-01-01T03:49:17.156Z,16.27
2018-01-01T03:51:45.544Z,16.48
2018-01-01T03:54:14.017Z,16.31
2018-01-01T03:56:42.553Z,16.50
2018-01-01T03:59:10.927Z,16.40
2018-01-01T04:01:39.324Z,16.38
2018-01-01T04:04:07.743Z,16.11
2018-01-01T04:06:36.233Z,16.30
2018-01-01T04:09:04.612Z,16.01
2018-01-01T04:11:33.492Z,16.20
2018-01-01T04:14:01.868Z,16.17
2018-01-01T04:16:30.247Z,16.17
2018-01-01T04:18:58.734Z,15.98
2018-01-01T04:21:27.112Z,16.06
2018-01-01T04:23:55.591Z,16.17
2018-01-01T04:26:24.074Z,16.16
2018-01-01T04:28:52.461Z,16.11
2018-01-01T04:31:21.236Z,16.16
2018-01-01T04:33:49.619Z,16.38
2018-01-01T04:36:18.008Z,16.29
2018-01-01T04:38:46.586Z,16.25
2018-01-01T04:41:15.375Z,16.23
2018-01-01T04:43:44.165Z,16.28
2018-01-01T04:46:12.991Z,16.31
2018-01-01T04:48:41.370Z,16.26
2018-01-01T04:51:09.796Z,16.21
2018-01-01T04:53:38.185Z,15.86
2018-01-01T04:56:06.589Z,15.63
2018-01-01T04:58:34.979Z,15.90
2018-01-01T05:01:03.432Z,15.67
2018-01-01T05:03:32.257Z,15.78
2018-01-01T05:06:00.639Z,15.93
2018-01-01T05:08:29.019Z,15.74
2018-01-01T05:10:57.448Z,15.58
2018-01-01T05:13:25.856Z,15.77
2018-01-01T05:15:54.255Z,15.69
2018-01-01T05:18:22.716Z,15.49
2018-01-01T05:20:51.128Z,15.52
2018-01-01T05:23:19.507Z,15.44
2018-01-01T05:25:47.888Z,15.56
2018-01-01T05:28:16.283Z,15.64
2018-01-01T05:30:44.679Z,15.29
2018-01-01T05:33:13.155Z,15.46
2018-01-01T05:35:41.540Z,15.24
2018-01-01T05:38:09.919Z,15.32
2018-01-01T05:40:38.395Z,15.46
2018-01-01T05:43:06.782Z,15.12
2018-01-01T05:45:35.184Z,15.32
2018-01-01T05:48:04.050Z,15.55
2018-01-01T05:50:32.940Z,15.30
2018-01-01T05:53:01.313Z,15.51
2018-01-01T05:55:29.799Z,15.55
2018-01-01T05:57:58.284Z,15.46
2018-01-01T06:00:26.660Z,15.58
2018-01-01T06:02:55.060Z,15.80
2018-01-01T06:05:23.862Z,15.61
2018-01-01T06:07:52.262Z,15.56
2018-01-01T06:10:20.643Z,15.61
2018-01-01T06:12:49.031Z,15.51
2018-01-01T06:15:17.442Z,15.45
2018-01-01T06:17:45.835Z,15.27
2018-01-01T06:20:14.608Z,14.93
2018-01-01T06:22:43.100Z,14.21
2018-01-01T06:25:11.878Z,14.59
2018-01-01T06:27:40.360Z,14.71
2018-01-01T06:30:08.868Z,14.53
2018-01-01T06:32:37.660Z,14.60
2018-01-01T06:35:06.458Z,14.58
2018-01-01T06:37:34.849Z,14.32
2018-01-01T06:40:03.330Z,14.48
2018-01-01T06:42:31.759Z,14.60
2018-01-01T06:45:00.136Z,14.23
2018-01-01T06:47:28.540Z,14.40
2018-01-01T06:49:57.325Z,13.95
2018-01-01T06:52:26.106Z,14.05
2018-01-01T06:54:54.597Z,14.40
2018-01-01T06:57:23.378Z,14.63
2018-01-01T06:59:52.351Z,14.48
2018-01-01T07:02:20.750Z,13.91
2018-01-01T07:04:49.524Z,14.00
2018-01-01T07:07:18.000Z,13.96
2018-01-01T07:09:46.383Z,14.55
2018-01-01T07:12:14.788Z,14.29
2018-01-01T07:14:43.664Z,14.37
2018-01-01T07:17:12.040Z,14.25
2018-01-01T07:19:40.532Z,14.09
2018-01-01T07:22:08.984Z,14.40
2018-01-01T07:24:37.419Z,14.62
2018-01-01T07:27:05.885Z,14.15
2018-01-01T07:29:34.349Z,14.03
2018-01-01T07:32:02.782Z,14.14
2018-01-01T07:34:31.172Z,14.26
2018-01-01T07:36:59.563Z,14.12
2018-01-01T07:39:27.961Z,13.98
2018-01-01T07:41:56.537Z,14.32
2018-01-01T07:44:24.917Z,14.21
2018-01-01T07:46:53.311Z,14.32
2018-01-01T07:49:21.711Z,14.33
2018-01-01T07:51:50.186Z,14.27
2018-01-01T07:54:18.744Z,14.33
2018-01-01T07:56:47.236Z,14.60
2018-01-01T07:59:16.108Z,14.59
2018-01-01T08:01:44.483Z,14.40
2018-01-01T08:04:12.972Z,14.46
2018-01-01T08:06:41.457Z,15.23
2018-01-01T08:09:10.617Z,15.70
2018-01-01T08:11:39.078Z,15.98
2018-01-01T08:14:07.933Z,15.97
2018-01-01T08:16:36.741Z,16.28
2018-01-01T08:19:05.133Z,16.55
2018-01-01T08:21:33.580Z,17.02
2018-01-01T08:24:02.360Z,17.46
2018-01-01T08:26:30.844Z,18.11
2018-01-01T08:28:59.237Z,18.43
2018-01-01T08:31:28.030Z,18.12
2018-01-01T08:33:56.912Z,18.02
2018-01-01T08:36:25.801Z,18.21
2018-01-01T08:38:54.692Z,18.82
2018-01-01T08:41:23.495Z,18.76
2018-01-01T08:43:51.888Z,18.24
2018-01-01T08:46:20.328Z,17.74
2018-01-01T08:48:48.727Z,16.97
2018-01-01T08:51:17.605Z,16.51
2018-01-01T08:53:46.391Z,16.43
2018-01-01T08:56:15.272Z,16.32
2018-01-01T08:58:43.660Z,16.40
2018-01-01T09:01:12.028Z,16.76
2018-01-01T09:03:40.437Z,17.73
2018-01-01T09:06:08.829Z,18.37
2018-01-01T09:08:37.281Z,18.81
2018-01-01T09:11:06.164Z,18.50
2018-01-01T09:13:34.546Z,18.07
2018-01-01T09:16:02.972Z,17.97
2018-01-01T09:18:31.372Z,18.84
2018-01-01T09:20:59.761Z,18.57
2018-01-01T09:23:28.141Z,18.46
2018-01-01T09:25:56.697Z,18.79
2018-01-01T09:28:26.085Z,18.91
2018-01-01T09:30:54.532Z,19.15
2018-01-01T09:33:23.322Z,19.18
2018-01-01T09:35:52.221Z,19.10
2018-01-01T09:38:21.100Z,18.72
2018-01-01T09:40:50.003Z,18.63
2018-01-01T09:43:18.791Z,18.38
2018-01-01T09:45:47.572Z,18.32
2018-01-01T09:48:16.388Z,18.11
2018-01-01T09:50:45.571Z,17.84
2018-01-01T09:53:14.352Z,17.94
2018-01-01T09:55:43.224Z,17.33
2018-01-01T09:58:11.704Z,17.95
2018-01-01T10:00:40.106Z,18.43
2018-01-01T10:03:09.027Z,17.91
2018-01-01T10:05:37.420Z,17.93
2018-01-01T10:08:05.804Z,17.91
2018-01-01T10:10:34.195Z,18.70
2018-01-01T10:13:02.772Z,17.97
2018-01-01T10:15:31.172Z,18.00
2018-01-01T10:17:59.585Z,18.07
2018-01-01T10:20:27.977Z,17.60
2018-01-01T10:22:56.421Z,17.17
2018-01-01T10:25:24.906Z,16.84
2018-01-01T10:27:53.798Z,16.43
2018-01-01T10:30:22.606Z,16.52
2018-01-01T10:32:51.072Z,16.26
2018-01-01T10:35:19.533Z,16.12
2018-01-01T10:37:47.933Z,15.67
2018-01-01T10:40:16.732Z,15.27
2018-01-01T10:42:45.508Z,15.56
2018-01-01T10:45:14.284Z,15.30
2018-01-01T10:47:42.768Z,15.52
2018-01-01T10:50:11.143Z,15.23
2018-01-01T10:52:39.534Z,15.48
2018-01-01T10:55:08.323Z,15.55
2018-01-01T10:57:37.112Z,15.68
2018-01-01T11:00:05.888Z,15.49
2018-01-01T11:02:34.320Z,15.63
2018-01-01T11:05:02.746Z,15.40
2018-01-01T11:07:31.132Z,15.48
2018-01-01T11:10:00.027Z,15.46
2018-01-01T11:12:28.445Z,15.48
2018-01-01T11:14:56.831Z,15.64
2018-01-01T11:18:23.210Z,15.18
2018-01-01T11:20:51.673Z,15.31
2018-01-01T11:23:20.149Z,15.25
2018-01-01T11:25:48.491Z,15.64
2018-01-01T11:28:16.851Z,15.58
2018-01-01T11:30:45.711Z,15.47
2018-01-01T11:33:14.076Z,15.71
2018-01-01T11:35:42.435Z,15.47
2018-01-01T11:38:10.840Z,15.79
2018-01-01T11:40:39.225Z,15.74
2018-01-01T11:43:07.712Z,15.92
2018-01-01T11:45:36.080Z,16.09
2018-01-01T11:48:04.433Z,16.10
2018-01-01T11:50:32.843Z,16.23
2018-01-01T11:53:01.208Z,15.72
2018-01-01T11:55:29.567Z,15.55
2018-01-01T11:57:57.982Z,15.84
2018-01-01T12:00:26.344Z,16.11
2018-01-01T12:02:54.714Z,16.06
2018-01-01T12:05:23.100Z,16.13
2018-01-01T12:07:51.500Z,15.88
2018-01-01T12:10:19.856Z,15.73
2018-01-01T12:12:48.472Z,15.78
2018-01-01T12:15:16.924Z,16.02
2018-01-01T12:17:45.272Z,16.29
2018-01-01T12:20:13.624Z,15.70
2018-01-01T12:22:42.502Z,15.62
2018-01-01T12:25:10.935Z,15.51
2018-01-01T12:27:39.275Z,15.58
2018-01-01T12:30:08.191Z,15.83
2018-01-01T12:32:36.565Z,15.30
2018-01-01T12:35:04.928Z,15.41
2018-01-01T12:37:33.759Z,15.69
2018-01-01T12:40:02.146Z,15.62
2018-01-01T12:42:30.500Z,15.69
2018-01-01T12:44:58.843Z,15.54
2018-01-01T12:47:27.596Z,15.81
2018-01-01T12:49:55.977Z,15.85
2018-01-01T12:52:24.323Z,15.60
2018-01-01T12:54:52.680Z,15.76
2018-01-01T12:57:21.507Z,15.74
2018-01-01T12:59:49.884Z,15.69
2018-01-01T13:02:18.239Z,15.58
2018-01-01T13:04:46.635Z,15.82
2018-01-01T13:07:15.003Z,15.83
2018-01-01T13:09:43.364Z,15.87
2018-01-01T13:12:11.789Z,15.88
2018-01-01T13:14:40.139Z,15.64
2018-01-01T13:17:08.504Z,15.37
2018-01-01T13:19:36.923Z,15.39
2018-01-01T13:22:05.304Z,15.25
2018-01-01T13:24:33.724Z,15.17
2018-01-01T13:27:02.072Z,15.20
2018-01-01T13:29:30.423Z,14.85
2018-01-01T13:31:58.787Z,14.53
2018-01-01T13:34:27.154Z,14.29
2018-01-01T13:36:55.576Z,13.95
2018-01-01T13:39:23.943Z,14.08
2018-01-01T13:41:52.379Z,13.97
2018-01-01T13:44:21.116Z,14.04
2018-01-01T13:46:49.467Z,14.16
2018-01-01T13:49:17.820Z,13.90
2018-01-01T13:51:46.575Z,13.95
2018-01-01T13:54:14.956Z,13.74
2018-01-01T13:56:43.329Z,14.02
2018-01-01T13:59:11.688Z,14.16
2018-01-01T14:01:40.081Z,14.25
2018-01-01T14:04:08.448Z,13.80
2018-01-01T14:06:36.796Z,14.09
2018-01-01T14:09:05.212Z,14.04
2018-01-01T14:11:33.567Z,14.07
2018-01-01T14:14:01.941Z,14.27
2018-01-01T14:16:30.447Z,14.25
2018-01-01T14:18:58.797Z,14.08
2018-01-01T14:21:27.163Z,14.18
2018-01-01T14:23:55.912Z,14.23
2018-01-01T14:26:24.385Z,13.95
2018-01-01T14:28:52.760Z,14.06
2018-01-01T14:31:21.224Z,14.36
2018-01-01T14:33:49.586Z,14.13
2018-01-01T14:36:17.944Z,14.20
2018-01-01T14:38:46.714Z,14.16
2018-01-01T14:41:15.156Z,14.09
2018-01-01T14:43:43.530Z,14.15
2018-01-01T14:46:11.905Z,14.10
2018-01-01T14:48:40.303Z,14.10
2018-01-01T14:51:08.647Z,14.00
2018-01-01T14:53:37.015Z,13.88
2018-01-01T14:56:05.424Z,13.84
2018-01-01T14:58:33.784Z,13.88
2018-01-01T15:01:02.177Z,13.68
2018-01-01T15:03:30.575Z,13.72
2018-01-01T15:05:58.920Z,13.47
2018-01-01T15:08:27.980Z,13.72
2018-01-01T15:10:56.893Z,14.03
2018-01-01T15:13:25.236Z,14.10
2018-01-01T15:15:54.689Z,14.22
2018-01-01T15:18:23.035Z,14.28
2018-01-01T15:20:51.783Z,14.35
2018-01-01T15:23:20.139Z,14.40
2018-01-01T15:25:48.536Z,14.38
2018-01-01T15:28:16.879Z,14.51
2018-01-01T15:30:45.233Z,14.47
2018-01-01T15:33:14.383Z,14.57
2018-01-01T15:35:42.728Z,14.65
2018-01-01T15:38:11.729Z,14.69
2018-01-01T15:40:40.161Z,14.67
2018-01-01T15:43:08.519Z,14.70
2018-01-01T15:45:36.885Z,14.54
2018-01-01T15:48:05.236Z,14.50
2018-01-01T15:50:33.656Z,14.82
2018-01-01T15:53:02.004Z,14.87
2018-01-01T15:55:30.408Z,14.43
2018-01-01T15:57:58.796Z,14.44
2018-01-01T16:00:27.148Z,14.73
2018-01-01T16:02:55.544Z,14.77
2018-01-01T16:05:23.891Z,14.66
2018-01-01T16:07:52.240Z,14.54
2018-01-01T16:10:20.599Z,14.44
2018-01-01T16:12:48.942Z,14.43
2018-01-01T16:15:17.315Z,14.27
2018-01-01T16:17:45.658Z,14.51
2018-01-01T16:20:14.396Z,14.34
2018-01-01T16:22:42.747Z,14.11
2018-01-01T16:25:11.160Z,14.32
2018-01-01T16:27:39.521Z,14.25
2018-01-01T16:30:07.960Z,14.38
2018-01-01T16:32:36.313Z,14.14
2018-01-01T16:35:04.648Z,14.11
2018-01-01T16:37:33.008Z,13.92
2018-01-01T16:40:01.847Z,14.02
2018-01-01T16:42:30.206Z,13.85
2018-01-01T16:44:58.552Z,14.02
2018-01-01T16:47:27.422Z,13.91
2018-01-01T16:49:55.763Z,13.72
2018-01-01T16:52:24.120Z,13.84
2018-01-01T16:54:52.484Z,13.85
2018-01-01T16:57:21.239Z,13.76
2018-01-01T16:59:49.586Z,13.81
2018-01-01T17:02:17.971Z,13.72
2018-01-01T17:04:46.336Z,13.63
2018-01-01T17:07:14.701Z,13.54
2018-01-01T17:09:43.116Z,13.55
2018-01-01T17:12:11.480Z,13.56
2018-01-01T17:14:40.736Z,13.33
2018-01-01T17:17:09.567Z,13.57
2018-01-01T17:19:37.911Z,13.16
2018-01-01T17:22:06.319Z,13.46
2018-01-01T17:24:34.700Z,13.53
2018-01-01T17:27:03.151Z,13.51
2018-01-01T17:29:31.543Z,13.44
2018-01-01T17:31:59.905Z,13.32
2018-01-01T17:34:28.678Z,13.33
2018-01-01T17:36:57.440Z,13.41
2018-01-01T17:39:25.783Z,13.37
2018-01-01T17:41:54.152Z,13.28
2018-01-01T17:44:22.491Z,13.18
2018-01-01T17:46:50.841Z,13.19
2018-01-01T17:49:19.210Z,13.12
2018-01-01T17:51:47.548Z,12.75
2018-01-01T17:54:16.314Z,12.88
2018-01-01T17:56:44.667Z,12.74
2018-01-01T17:59:13.009Z,12.66
2018-01-01T18:01:41.384Z,12.70
2018-01-01T18:04:09.754Z,12.46
2018-01-01T18:06:38.181Z,12.59
2018-01-01T18:09:06.524Z,12.54
2018-01-01T18:11:34.885Z,12.29
2018-01-01T18:14:03.649Z,12.05
2018-01-01T18:16:31.995Z,12.25
2018-01-01T18:19:00.401Z,12.07
2018-01-01T18:21:28.764Z,12.06
2018-01-01T18:23:57.150Z,12.02
2018-01-01T18:26:25.505Z,11.99
2018-01-01T18:28:53.895Z,12.00
2018-01-01T18:31:22.374Z,11.95
2018-01-01T18:33:50.939Z,11.76
2018-01-01T18:36:19.354Z,11.76
2018-01-01T18:38:47.735Z,11.64
2018-01-01T18:41:16.084Z,11.75
2018-01-01T18:43:44.455Z,11.80
2018-01-01T18:46:12.798Z,11.62
2018-01-01T18:48:41.148Z,11.37
2018-01-01T18:51:09.580Z,11.74
2018-01-01T18:53:37.986Z,11.75
2018-01-01T18:56:06.357Z,11.19
2018-01-01T18:58:34.718Z,11.57
2018-01-01T19:01:03.067Z,11.53
2018-01-01T19:03:31.912Z,11.60
2018-01-01T19:06:00.272Z,11.31
2018-01-01T19:08:28.634Z,11.39
2018-01-01T19:10:56.993Z,11.34
2018-01-01T19:13:25.756Z,11.49
2018-01-01T19:15:54.115Z,11.18
2018-01-01T19:18:22.758Z,11.21
2018-01-01T19:20:51.183Z,11.22
2018-01-01T19:23:19.580Z,11.18
2018-01-01T19:25:47.948Z,11.25
2018-01-01T19:28:16.387Z,11.26
2018-01-01T19:30:44.820Z,11.14
2018-01-01T19:33:13.178Z,11.01
2018-01-01T19:35:41.557Z,11.19
2018-01-01T19:38:09.904Z,11.07
2018-01-01T19:40:38.247Z,10.94
2018-01-01T19:43:06.995Z,11.02
2018-01-01T19:45:35.341Z,10.94
2018-01-01T19:48:03.747Z,11.03
2018-01-01T19:50:32.083Z,10.98
2018-01-01T19:53:00.908Z,10.94
2018-01-01T19:55:29.265Z,10.78
2018-01-01T19:57:57.668Z,10.82
2018-01-01T20:00:26.037Z,10.84
2018-01-01T20:02:54.392Z,10.71
2018-01-01T20:05:22.766Z,10.63
2018-01-01T20:07:51.602Z,10.60
2018-01-01T20:10:19.980Z,10.41
2018-01-01T20:12:48.844Z,10.21
2018-01-01T20:15:17.208Z,10.15
2018-01-01T20:17:45.571Z,10.22
2018-01-01T20:20:14.311Z,10.25
2018-01-01T20:22:42.666Z,10.30
2018-01-01T20:25:11.004Z,10.05
2018-01-01T20:27:39.364Z,10.16
2018-01-01T20:30:07.724Z,10.16
2018-01-01T20:32:36.200Z,9.90
2018-01-01T20:35:04.560Z,10.21
2018-01-01T20:37:32.903Z,10.17
2018-01-01T20:40:01.660Z,10.14
2018-01-01T20:42:30.024Z,10.21
2018-01-01T20:44:58.484Z,10.26
2018-01-01T20:47:26.841Z,10.27
2018-01-01T20:49:55.577Z,10.21
2018-01-01T20:52:23.983Z,10.55
2018-01-01T20:54:52.449Z,10.21
2018-01-01T20:57:20.805Z,10.48
2018-01-01T20:59:49.152Z,10.56
2018-01-01T21:02:17.509Z,10.40
2018-01-01T21:04:46.369Z,10.35
2018-01-01T21:07:14.738Z,10.44
2018-01-01T21:09:43.122Z,10.55
2018-01-01T21:12:11.501Z,10.84
2018-01-01T21:14:39.888Z,10.75
2018-01-01T21:17:08.252Z,10.44
2018-01-01T21:19:36.624Z,10.63
2018-01-01T21:22:04.964Z,10.40
2018-01-01T21:24:33.803Z,10.80
2018-01-01T21:27:02.191Z,10.74
2018-01-01T21:29:30.566Z,10.62
2018-01-01T21:31:59.840Z,10.85
2018-01-01T21:34:28.244Z,10.81
2018-01-01T21:36:56.599Z,10.76
2018-01-01T21:39:24.955Z,10.58
2018-01-01T21:41:53.308Z,10.48
2018-01-01T21:44:21.677Z,10.30
2018-01-01T21:46:50.028Z,10.62
2018-01-01T21:49:18.377Z,10.65
2018-01-01T21:51:46.752Z,10.59
2018-01-01T21:54:15.109Z,10.74
2018-01-01T21:56:43.859Z,10.54
2018-01-01T21:59:12.220Z,10.68
2018-01-01T22:01:40.567Z,10.73
2018-01-01T22:04:08.986Z,10.94
2018-01-01T22:06:37.362Z,10.84
2018-01-01T22:09:05.707Z,10.87
2018-01-01T22:11:34.051Z,10.68
2018-01-01T22:14:02.405Z,10.85
2018-01-01T22:16:30.778Z,10.61
2018-01-01T22:18:59.154Z,10.41
2018-01-01T22:21:27.545Z,10.68
2018-01-01T22:23:55.908Z,11.11
2018-01-01T22:26:24.291Z,10.82
2018-01-01T22:28:52.675Z,10.89
2018-01-01T22:31:21.048Z,10.85
2018-01-01T22:33:49.441Z,11.15
2018-01-01T22:36:17.795Z,11.23
2018-01-01T22:38:46.240Z,11.24
2018-01-01T22:41:15.081Z,11.08
2018-01-01T22:43:43.544Z,11.22
2018-01-01T22:46:11.938Z,11.39
2018-01-01T22:48:40.301Z,11.19
2018-01-01T22:51:08.644Z,11.41
2018-01-01T22:53:37.408Z,11.51
2018-01-01T22:56:05.748Z,11.50
2018-01-01T22:58:34.140Z,11.44
2018-01-01T23:01:02.496Z,11.61
2018-01-01T23:03:30.829Z,11.59
2018-01-01T23:05:59.288Z,11.57
2018-01-01T23:08:27.645Z,11.55
2018-01-01T23:10:56.692Z,11.56
2018-01-01T23:13:25.540Z,11.47
2018-01-01T23:15:53.918Z,11.05
2018-01-01T23:18:22.293Z,11.01
2018-01-01T23:20:50.678Z,11.08
2018-01-01T23:23:19.032Z,10.99
2018-01-01T23:25:47.440Z,11.15
2018-01-01T23:28:15.804Z,11.17
2018-01-01T23:30:44.157Z,11.19
2018-01-01T23:33:12.519Z,11.26
2018-01-01T23:35:41.980Z,11.46
2018-01-01T23:38:10.349Z,11.37
2018-01-01T23:40:38.711Z,11.29
2018-01-01T23:43:07.056Z,11.20
2018-01-01T23:45:35.816Z,11.34
2018-01-01T23:48:04.199Z,11.41
2018-01-01T23:50:32.599Z,11.33
2018-01-01T23:53:01.448Z,11.58
2018-01-01T23:55:29.951Z,11.37
2018-01-01T23:57:58.304Z,11.41
